Hovedside
METAR-TAF:

METAR-TAF

Lufthavner :

Xi'an, Kina

Xi'an Xianyang internasjonale lufthavn

breddegrad: 34-26N, lengdegrad: 108-45E, høyde over havet: 479 m

Gjeldene værobservasjon

Denne rapporten ble laget for 34 minutter siden, klokken 18:00 UTC
Vind 4 kt fra Vest
Temperatur 12°C
Luftfuktighet 88%
Trykk 1020 hPa
Sikt: 8000 m
Overskyet i en høyde av 7000 ft
lett regn

METAR: ZLXY 241800Z 26002MPS 8000 -RA OVC070 12/10 Q1020 NOSIG

Tid: 02:34 (18:34 UTC)

Varsel

Denne rapporten ble laget for 3 timer og 29 minutter siden, klokken 15:05 UTC
Varsel gyldig fra 24. klokken 18 UTC til 25. klokken 18 UTC
Vind 8 kt fra Vest-sørvest
Sikt: 3000 m
Overskyet i en høyde av 7000 ft
lett regn, dis
Blir
fra 25. klokken 02 UTC til 25. klokken 03 UTC
Sikt: 2800 m
lett regn, dis
Blir
fra 25. klokken 03 UTC til 25. klokken 04 UTC
Sikt: 3000 m
dis

TAF: ZLXY 241505Z 2418/2518 24004MPS 3000 -RA BR OVC070 TX20/2509Z TN11/2422Z BECMG 2502/2503 2800 -RA BR BECMG 2503/2504 3000 BR

Værobservasjoner og værvarsel for over 4000 flyplasser (METAR- og TAF-rapporter).

Tilgjengelige stasjoner er representert av de røde og gule prikkene på kartet.

Hold musepekeren over prikken for å se navnet på stasjonen.

Klikk så for å se værobservasjoner og -varsler.

For å forandre kartet kan du klikke på den grønne knappen med svart kryss for å zoome inn, på den grønne knappen med strek for å zoome ut, eller på de grønne pilene for å se tilstøtende kart.


METAR-TAF: